Map

Track Data

SID SEASON NUMBER BASIN SUBBASIN NAME ISO_TIME NATURE LAT LON WMO_WIND WMO_PRES WMO_AGENCY TRACK_TYPE DIST2LAND LANDFALL IFLAG USA_AGENCY USA_ATCF_ID USA_LAT USA_LON USA_RECORD USA_STATUS USA_WIND USA_PRES USA_SSHS USA_R34_NE USA_R34_SE USA_R34_SW USA_R34_NW USA_R50_NE USA_R50_SE USA_R50_SW USA_R50_NW USA_R64_NE USA_R64_SE USA_R64_SW USA_R64_NW USA_POCI USA_ROCI USA_RMW USA_EYE TOKYO_LAT TOKYO_LON TOKYO_GRADE TOKYO_WIND TOKYO_PRES TOKYO_R50_DIR TOKYO_R50_LONG TOKYO_R50_SHORT TOKYO_R30_DIR TOKYO_R30_LONG TOKYO_R30_SHORT TOKYO_LAND CMA_LAT CMA_LON CMA_CAT CMA_WIND CMA_PRES HKO_LAT HKO_LON HKO_CAT HKO_WIND HKO_PRES NEWDELHI_LAT NEWDELHI_LON NEWDELHI_GRADE NEWDELHI_WIND NEWDELHI_PRES NEWDELHI_CI NEWDELHI_DP NEWDELHI_POCI REUNION_LAT REUNION_LON REUNION_TYPE REUNION_WIND REUNION_PRES REUNION_TNUM REUNION_CI REUNION_RMW REUNION_R34_NE REUNION_R34_SE REUNION_R34_SW REUNION_R34_NW REUNION_R50_NE REUNION_R50_SE REUNION_R50_SW REUNION_R50_NW REUNION_R64_NE REUNION_R64_SE REUNION_R64_SW REUNION_R64_NW BOM_LAT BOM_LON BOM_TYPE BOM_WIND BOM_PRES BOM_TNUM BOM_CI BOM_RMW BOM_R34_NE BOM_R34_SE BOM_R34_SW BOM_R34_NW BOM_R50_NE BOM_R50_SE BOM_R50_SW BOM_R50_NW BOM_R64_NE BOM_R64_SE BOM_R64_SW BOM_R64_NW BOM_ROCI BOM_POCI BOM_EYE BOM_POS_METHOD BOM_PRES_METHOD NADI_LAT NADI_LON NADI_CAT NADI_WIND NADI_PRES WELLINGTON_LAT WELLINGTON_LON WELLINGTON_WIND WELLINGTON_PRES DS824_LAT DS824_LON DS824_STAGE DS824_WIND DS824_PRES TD9636_LAT TD9636_LON TD9636_STAGE TD9636_WIND TD9636_PRES TD9635_LAT TD9635_LON TD9635_WIND TD9635_PRES TD9635_ROCI NEUMANN_LAT NEUMANN_LON NEUMANN_CLASS NEUMANN_WIND NEUMANN_PRES MLC_LAT MLC_LON MLC_CLASS MLC_WIND MLC_PRES USA_GUST BOM_GUST BOM_GUST_PER REUNION_GUST REUNION_GUST_PER USA_SEAHGT USA_SEARAD_NE USA_SEARAD_SE USA_SEARAD_SW USA_SEARAD_NW STORM_SPEED STORM_DIR
1879228N13341 1879 13 NA NA NOT_NAMED 1879-08-15 18:00:00 TS 12.5000 -18.7000 main 206 206 _____________O -1 12.5000 -18.7000 TD 30 11 270
1879228N13341 1879 13 NA NA NOT_NAMED 1879-08-15 21:00:00 TS 12.5002 -19.2500 main 260 271 _____________P -1 12.5002 -19.2500 TD 30 11 270
1879228N13341 1879 13 NA NA NOT_NAMED 1879-08-16 00:00:00 TS 12.5000 -19.8000 main 326 326 _____________O -1 12.5000 -19.8000 TD 30 11 270
1879228N13341 1879 13 NA NA NOT_NAMED 1879-08-16 03:00:00 TS 12.4999 -20.3500 main 380 380 _____________P -1 12.4999 -20.3500 TD 30 11 270
1879228N13341 1879 13 NA NA NOT_NAMED 1879-08-16 06:00:00 TS 12.5000 -20.9000 main 442 442 _____________O -1 12.5000 -20.9000 TD 30 11 270
1879228N13341 1879 13 NA NA NOT_NAMED 1879-08-16 09:00:00 TS 12.4923 -21.4426 main 488 488 _____________P -1 12.4923 -21.4426 TD 32 11 270
1879228N13341 1879 13 NA NA NOT_NAMED 1879-08-16 12:00:00 TS 12.5000 -22.0000 main 545 545 _____________O -1 12.5000 -22.0000 TS 35 11 273
1879228N13341 1879 13 NA NA NOT_NAMED 1879-08-16 15:00:00 TS 12.5425 -22.6000 main 603 603 _____________P -1 12.5425 -22.6000 TS 35 12 275
1879228N13341 1879 13 NA NA NOT_NAMED 1879-08-16 18:00:00 TS 12.6000 -23.2000 main 659 659 _____________O -1 12.6000 -23.2000 TS 35 11 275
1879228N13341 1879 13 NA NA NOT_NAMED 1879-08-16 21:00:00 TS 12.6498 -23.7575 main 720 716 _____________P -1 12.6498 -23.7575 TS 35 11 275
1879228N13341 1879 13 NA NA NOT_NAMED 1879-08-17 00:00:00 TS 12.7000 -24.3000 main 768 768 _____________O -1 12.7000 -24.3000 TS 35 11 275
1879228N13341 1879 13 NA NA NOT_NAMED 1879-08-17 03:00:00 TS 12.7499 -24.8500 main 830 827 _____________P -1 12.7499 -24.8500 TS 35 11 275
1879228N13341 1879 13 NA NA NOT_NAMED 1879-08-17 06:00:00 TS 12.8000 -25.4000 main 879 879 _____________O -1 12.8000 -25.4000 TS 35 11 275
1879228N13341 1879 13 NA NA NOT_NAMED 1879-08-17 09:00:00 TS 12.8423 -25.9426 main 932 932 _____________P -1 12.8423 -25.9426 TS 37 11 275
1879228N13341 1879 13 NA NA NOT_NAMED 1879-08-17 12:00:00 TS 12.9000 -26.5000 main 992 992 _____________O -1 12.9000 -26.5000 TS 40 11 277
1879228N13341 1879 13 NA NA NOT_NAMED 1879-08-17 15:00:00 TS 12.9849 -27.0851 main 1054 1054 _____________P -1 12.9849 -27.0851 TS 40 12 280
1879228N13341 1879 13 NA NA NOT_NAMED 1879-08-17 18:00:00 TS 13.1000 -27.7000 main 1115 1115 _____________O -1 13.1000 -27.7000 TS 40 13 282
1879228N13341 1879 13 NA NA NOT_NAMED 1879-08-17 21:00:00 TS 13.2499 -28.3425 main 1177 1177 _____________P -1 13.2499 -28.3425 TS 42 13 283
1879228N13341 1879 13 NA NA NOT_NAMED 1879-08-18 00:00:00 TS 13.4000 -29.0000 main 1249 1249 _____________O -1 13.4000 -29.0000 TS 45 13 281
1879228N13341 1879 13 NA NA NOT_NAMED 1879-08-18 03:00:00 TS 13.5074 -29.6576 main 1323 1323 _____________P -1 13.5074 -29.6576 TS 45 13 279
1879228N13341 1879 13 NA NA NOT_NAMED 1879-08-18 06:00:00 TS 13.6000 -30.3000 main 1386 1386 _____________O -1 13.6000 -30.3000 TS 45 12 279
1879228N13341 1879 13 NA NA NOT_NAMED 1879-08-18 09:00:00 TS 13.6922 -30.8926 main 1449 1449 _____________P -1 13.6922 -30.8926 TS 47 12 280
1879228N13341 1879 13 NA NA NOT_NAMED 1879-08-18 12:00:00 TS 13.8000 -31.5000 main 1512 1512 _____________O -1 13.8000 -31.5000 TS 50 13 281
1879228N13341 1879 13 NA NA NOT_NAMED 1879-08-18 15:00:00 TS 13.9424 -32.1850 main 1586 1586 _____________P -1 13.9424 -32.1850 TS 50 14 282
1879228N13341 1879 13 NA NA NOT_NAMED 1879-08-18 18:00:00 TS 14.1000 -32.9000 main 1660 1660 _____________O -1 14.1000 -32.9000 TS 50 14 283
1879228N13341 1879 13 NA NA NOT_NAMED 1879-08-18 21:00:00 TS 14.2499 -33.6076 main 1734 1734 _____________P -1 14.2499 -33.6076 TS 52 14 282
1879228N13341 1879 13 NA NA NOT_NAMED 1879-08-19 00:00:00 TS 14.4000 -34.3000 main 1808 1808 _____________O -1 14.4000 -34.3000 TS 55 13 283
1879228N13341 1879 13 NA NA NOT_NAMED 1879-08-19 03:00:00 TS 14.5497 -34.9501 main 1883 1883 _____________P -1 14.5497 -34.9501 TS 57 13 283
1879228N13341 1879 13 NA NA NOT_NAMED 1879-08-19 06:00:00 TS 14.7000 -35.6000 main 1947 1947 _____________O -1 14.7000 -35.6000 TS 60 13 283
1879228N13341 1879 13 NA NA NOT_NAMED 1879-08-19 09:00:00 TS 14.8499 -36.2926 main 2020 1972 _____________P -1 14.8499 -36.2926 TS 60 14 283
1879228N13341 1879 13 NA NA NOT_NAMED 1879-08-19 12:00:00 TS 15.0000 -37.0000 main 1972 1918 _____________O -1 15.0000 -37.0000 TS 60 14 282
1879228N13341 1879 13 NA NA NOT_NAMED 1879-08-19 15:00:00 TS 15.1498 -37.7001 main 1918 1874 _____________P -1 15.1498 -37.7001 TS 65 14 283
1879228N13341 1879 13 NA NA NOT_NAMED 1879-08-19 18:00:00 TS 15.3000 -38.4000 main 1874 1824 _____________O -1 15.3000 -38.4000 HU 70 14 283
1879228N13341 1879 13 NA NA NOT_NAMED 1879-08-19 21:00:00 TS 15.4498 -39.1001 main 1824 1784 _____________P -1 15.4498 -39.1001 HU 70 14 283
1879228N13341 1879 13 NA NA NOT_NAMED 1879-08-20 00:00:00 TS 15.6000 -39.8000 main 1784 1739 _____________O -1 15.6000 -39.8000 HU 70 14 283
1879228N13341 1879 13 NA NA NOT_NAMED 1879-08-20 03:00:00 TS 15.7573 -40.5075 main 1747 1705 _____________P -1 15.7573 -40.5075 HU 70 14 283
1879228N13341 1879 13 NA NA NOT_NAMED 1879-08-20 06:00:00 TS 15.9000 -41.2000 main 1705 1672 _____________O -1 15.9000 -41.2000 HU 70 13 280
1879228N13341 1879 13 NA NA NOT_NAMED 1879-08-20 09:00:00 TS 15.9847 -41.8579 main 1665 1634 _____________P -1 15.9847 -41.8579 HU 72 13 279
1879228N13341 1879 13 NA NA NOT_NAMED 1879-08-20 12:00:00 TS 16.1000 -42.5000 main 1634 1615 _____________O -1 16.1000 -42.5000 HU 75 13 286
1879228N13341 1879 13 NA NA NOT_NAMED 1879-08-20 15:00:00 TS 16.3349 -43.1573 main 1609 1595 _____________P -1 16.3349 -43.1573 HU 75 13 292
1879228N13341 1879 13 NA NA NOT_NAMED 1879-08-20 18:00:00 TS 16.6000 -43.8000 main 1597 1576 _____________O -1 16.6000 -43.8000 HU 75 13 292
1879228N13341 1879 13 NA NA NOT_NAMED 1879-08-20 21:00:00 TS 16.8072 -44.4002 main 1576 1559 _____________P -1 16.8072 -44.4002 HU 75 12 289
1879228N13341 1879 13 NA NA NOT_NAMED 1879-08-21 00:00:00 TS 17.0000 -45.0000 main 1559 1540 _____________O -1 17.0000 -45.0000 HU 75 13 288
1879228N13341 1879 13 NA NA NOT_NAMED 1879-08-21 03:00:00 TS 17.1999 -45.6501 main 1539 1528 _____________P -1 17.1999 -45.6501 HU 75 13 288
1879228N13341 1879 13 NA NA NOT_NAMED 1879-08-21 06:00:00 TS 17.4000 -46.3000 main 1528 1518 _____________O -1 17.4000 -46.3000 HU 75 13 288
1879228N13341 1879 13 NA NA NOT_NAMED 1879-08-21 09:00:00 TS 17.6076 -46.9599 main 1515 1507 _____________P -1 17.6076 -46.9599 HU 75 12 289
1879228N13341 1879 13 NA NA NOT_NAMED 1879-08-21 12:00:00 TS 17.8000 -47.5000 main 1513 1509 _____________O -1 17.8000 -47.5000 HU 75 9 294
1879228N13341 1879 13 NA NA NOT_NAMED 1879-08-21 15:00:00 TS 17.9572 -47.8027 main 1522 1517 _____________P -1 17.9572 -47.8027 HU 75 6 302
1879228N13341 1879 13 NA NA NOT_NAMED 1879-08-21 18:00:00 TS 18.1000 -48.0000 main 1523 1518 _____________O -1 18.1000 -48.0000 HU 75 5 305
1879228N13341 1879 13 NA NA NOT_NAMED 1879-08-21 21:00:00 TS 18.2500 -48.2500 main 1519 1519 _____________P -1 18.2500 -48.2500 HU 75 6 302
1879228N13341 1879 13 NA NA NOT_NAMED 1879-08-22 00:00:00 TS 18.4000 -48.5000 main 1530 1525 _____________O -1 18.4000 -48.5000 HU 75 6 302
1879228N13341 1879 13 NA NA NOT_NAMED 1879-08-22 03:00:00 TS 18.5500 -48.7500 main 1527 1527 _____________P -1 18.5500 -48.7500 HU 72 6 302
1879228N13341 1879 13 NA NA NOT_NAMED 1879-08-22 06:00:00 TS 18.7000 -49.0000 main 1540 1536 _____________O -1 18.7000 -49.0000 HU 70 6 301
1879228N13341 1879 13 NA NA NOT_NAMED 1879-08-22 09:00:00 TS 18.8425 -49.2650 main 1539 1539 _____________P -1 18.8425 -49.2650 HU 70 6 302
1879228N13341 1879 13 NA NA NOT_NAMED 1879-08-22 12:00:00 TS 19.0000 -49.5000 main 1545 1541 _____________O -1 19.0000 -49.5000 HU 70 5 312
1879228N13341 1879 13 NA NA NOT_NAMED 1879-08-22 15:00:00 TS 19.1925 -49.6725 main 1541 1539 _____________P -1 19.1925 -49.6725 HU 70 5 325
1879228N13341 1879 13 NA NA NOT_NAMED 1879-08-22 18:00:00 TS 19.4000 -49.8000 main 1546 1545 _____________O -1 19.4000 -49.8000 HU 70 5 332
1879228N13341 1879 13 NA NA NOT_NAMED 1879-08-22 21:00:00 TS 19.6000 -49.9076 main 1552 1550 _____________P -1 19.6000 -49.9076 HU 70 4 335
1879228N13341 1879 13 NA NA NOT_NAMED 1879-08-23 00:00:00 TS 19.8000 -50.0000 main 1557 1557 _____________O -1 19.8000 -50.0000 HU 70 4 336
1879228N13341 1879 13 NA NA NOT_NAMED 1879-08-23 03:00:00 TS 20.0075 -50.1000 main 1564 1563 _____________P -1 20.0075 -50.1000 HU 67 4 335
1879228N13341 1879 13 NA NA NOT_NAMED 1879-08-23 06:00:00 TS 20.2000 -50.2000 main 1570 1570 _____________O -1 20.2000 -50.2000 HU 65 4 332
1879228N13341 1879 13 NA NA NOT_NAMED 1879-08-23 09:00:00 TS 20.3350 -50.2852 main 1570 1570 _____________P -1 20.3350 -50.2852 HU 62 4 329
1879228N13341 1879 13 NA NA NOT_NAMED 1879-08-23 12:00:00 TS 20.5000 -50.4000 main 1577 1577 _____________O -1 20.5000 -50.4000 TS 60 5 328
1879228N13341 1879 13 NA NA NOT_NAMED 1879-08-23 15:00:00 TS 20.7775 -50.5849 main 1585 1575 _____________P -1 20.7775 -50.5849 TS 60 7 328
1879228N13341 1879 13 NA NA NOT_NAMED 1879-08-23 18:00:00 TS 21.1000 -50.8000 main 1577 1560 _____________O -1 21.1000 -50.8000 TS 60 8 326
1879228N13341 1879 13 NA NA NOT_NAMED 1879-08-23 21:00:00 TS 21.4000 -51.0299 main 1562 1545 _____________P -1 21.4000 -51.0299 TS 57 7 328
1879228N13341 1879 13 NA NA NOT_NAMED 1879-08-24 00:00:00 TS 21.7000 -51.2000 main 1547 1547 _____________O -1 21.7000 -51.2000 TS 55 6 343
1879228N13341 1879 13 NA NA NOT_NAMED 1879-08-24 03:00:00 TS 22.0075 -51.2302 main 1554 1554 _____________P -1 22.0075 -51.2302 TS 55 6 1
1879228N13341 1879 13 NA NA NOT_NAMED 1879-08-24 06:00:00 TS 22.3000 -51.2000 main 1562 1562 _____________O -1 22.3000 -51.2000 TS 55 6 4
1879228N13341 1879 13 NA NA NOT_NAMED 1879-08-24 09:00:00 TS 22.5575 -51.1851 main 1570 1570 _____________P -1 22.5575 -51.1851 TS 52 5 2
1879228N13341 1879 13 NA NA NOT_NAMED 1879-08-24 12:00:00 TS 22.8000 -51.2000 main 1576 1572 _____________O -1 22.8000 -51.2000 TS 50 5 350
1879228N13341 1879 13 NA NA NOT_NAMED 1879-08-24 15:00:00 TS 23.0575 -51.2849 main 1575 1569 _____________P -1 23.0575 -51.2849 TS 50 5 340
1879228N13341 1879 13 NA NA NOT_NAMED 1879-08-24 18:00:00 TS 23.3000 -51.4000 main 1572 1566 _____________O -1 23.3000 -51.4000 TS 50 5 336
1879228N13341 1879 13 NA NA NOT_NAMED 1879-08-24 21:00:00 TS 23.5075 -51.5000 main 1570 1563 _____________P -1 23.5075 -51.5000 TS 50 4 336
1879228N13341 1879 13 NA NA NOT_NAMED 1879-08-25 00:00:00 TS 23.7000 -51.6000 main 1567 1561 _____________O -1 23.7000 -51.6000 TS 50 4 335
1879228N13341 1879 13 NA NA NOT_NAMED 1879-08-25 03:00:00 TS 23.9000 -51.7000 main 1565 1560 _____________P -1 23.9000 -51.7000 TS 50 4 336
1879228N13341 1879 13 NA NA NOT_NAMED 1879-08-25 06:00:00 TS 24.1000 -51.8000 main 1564 1558 _____________O -1 24.1000 -51.8000 TS 50 5 333
1879228N13341 1879 13 NA NA NOT_NAMED 1879-08-25 09:00:00 TS 24.3000 -51.9224 main 1563 1558 _____________P -1 24.3000 -51.9224 TS 50 4 336
1879228N13341 1879 13 NA NA NOT_NAMED 1879-08-25 12:00:00 TS 24.5000 -52.0000 main 1562 1562 _____________O -1 24.5000 -52.0000 TS 50 4 355
1879228N13341 1879 13 NA NA NOT_NAMED 1879-08-25 15:00:00 TS 24.7000 -51.9726 main 1571 1571 _____________P -1 24.7000 -51.9726 TS 50 4 12
1879228N13341 1879 13 NA NA NOT_NAMED 1879-08-25 18:00:00 TS 24.9000 -51.9000 main 1589 1589 _____________O -1 24.9000 -51.9000 TS 50 4 15
1879228N13341 1879 13 NA NA NOT_NAMED 1879-08-25 21:00:00 TS 25.1000 -51.8500 main 1608 1608 _____________P -1 25.1000 -51.8500 TS 50 4 12
1879228N13341 1879 13 NA NA NOT_NAMED 1879-08-26 00:00:00 TS 25.3000 -51.8000 main 1617 1617 _____________O -1 25.3000 -51.8000 TS 50 4 12
1879228N13341 1879 13 NA NA NOT_NAMED 1879-08-26 03:00:00 TS 25.5075 -51.7500 main 1636 1636 _____________P -1 25.5075 -51.7500 TS 50 4 12
1879228N13341 1879 13 NA NA NOT_NAMED 1879-08-26 06:00:00 TS 25.7000 -51.7000 main 1646 1646 _____________O -1 25.7000 -51.7000 TS 50 4 12
1879228N13341 1879 13 NA NA NOT_NAMED 1879-08-26 09:00:00 TS 25.8575 -51.6649 main 1656 1656 _____________P -1 25.8575 -51.6649 TS 50 3 16
1879228N13341 1879 13 NA NA NOT_NAMED 1879-08-26 12:00:00 TS 26.0000 -51.6000 main 1670 1670 _____________O -1 26.0000 -51.6000 TS 50 4 31
1879228N13341 1879 13 NA NA NOT_NAMED 1879-08-26 15:00:00 TS 26.1575 -51.4650 main 1690 1690 _____________P -1 26.1575 -51.4650 TS 50 4 42
1879228N13341 1879 13 NA NA NOT_NAMED 1879-08-26 18:00:00 TS 26.3000 -51.3000 main 1712 1712 _____________O -1 26.3000 -51.3000 TS 50 4 49
1879228N13341 1879 13 NA NA NOT_NAMED 1879-08-26 21:00:00 TS 26.4000 -51.1499 main 1735 1735 _____________P -1 26.4000 -51.1499 TS 50 3 53
1879228N13341 1879 13 NA NA NOT_NAMED 1879-08-27 00:00:00 TS 26.5000 -51.0000 main 1749 1749 _____________O -1 26.5000 -51.0000 TS 50 4 48
1879228N13341 1879 13 NA NA NOT_NAMED 1879-08-27 03:00:00 TS 26.6500 -50.8425 main 1777 1777 _____________P -1 26.6500 -50.8425 TS 50 4 42
1879228N13341 1879 13 NA NA NOT_NAMED 1879-08-27 06:00:00 TS 26.8000 -50.7000 main 1791 1791 _____________O -1 26.8000 -50.7000 TS 50 3 43
1879228N13341 1879 13 NA NA NOT_NAMED 1879-08-27 09:00:00 TS 26.8925 -50.5924 main 1806 1806 _____________P -1 26.8925 -50.5924 TS 50 3 42
1879228N13341 1879 13 NA NA NOT_NAMED 1879-08-27 12:00:00 TS 27.0000 -50.5000 main 1820 1820 _____________O -1 27.0000 -50.5000 TS 50 3 31
1879228N13341 1879 13 NA NA NOT_NAMED 1879-08-27 15:00:00 TS 27.1850 -50.3925 main 1839 1839 _____________P -1 27.1850 -50.3925 TS 50 4 24
1879228N13341 1879 13 NA NA NOT_NAMED 1879-08-27 18:00:00 TS 27.4000 -50.3000 main 1859 1859 _____________O -1 27.4000 -50.3000 TS 50 4 18
1879228N13341 1879 13 NA NA NOT_NAMED 1879-08-27 21:00:00 TS 27.6000 -50.2424 main 1878 1878 _____________P -1 27.6000 -50.2424 TS 50 4 12
1879228N13341 1879 13 NA NA NOT_NAMED 1879-08-28 00:00:00 TS 27.8000 -50.2000 main 1889 1889 _____________O -1 27.8000 -50.2000 TS 50 4 11
1879228N13341 1879 13 NA NA NOT_NAMED 1879-08-28 03:00:00 TS 28.0075 -50.1500 main 1909 1909 _____________P -1 28.0075 -50.1500 TS 50 4 12
1879228N13341 1879 13 NA NA NOT_NAMED 1879-08-28 06:00:00 TS 28.2000 -50.1000 main 1921 1921 _____________O -1 28.2000 -50.1000 TS 50 3 15
1879228N13341 1879 13 NA NA NOT_NAMED 1879-08-28 09:00:00 TS 28.3275 -50.0499 main 1935 1935 _____________P -1 28.3275 -50.0499 TS 50 3 16
1879228N13341 1879 13 NA NA NOT_NAMED 1879-08-28 12:00:00 TS 28.5000 -50.0000 main 1947 1947 _____________O -1 28.5000 -50.0000 TS 50 5 11
1879228N13341 1879 13 NA NA NOT_NAMED 1879-08-28 15:00:00 TS 28.8200 -49.9426 main 1973 1958 _____________P -1 28.8200 -49.9426 TS 50 7 7
1879228N13341 1879 13 NA NA NOT_NAMED 1879-08-28 18:00:00 TS 29.2000 -49.9000 main 1958 1925 _____________O -1 29.2000 -49.9000 TS 50 7 2
1879228N13341 1879 13 NA NA NOT_NAMED 1879-08-28 21:00:00 TS 29.5500 -49.8998 main 1925 1881 _____________P -1 29.5500 -49.8998 TS 50 7 0
1879228N13341 1879 13 NA NA NOT_NAMED 1879-08-29 00:00:00 TS 29.9000 -49.9000 main 1881 1847 _____________O -1 29.9000 -49.9000 TS 50 7 3
1879228N13341 1879 13 NA NA NOT_NAMED 1879-08-29 03:00:00 TS 30.2500 -49.8501 main 1836 1805 _____________P -1 30.2500 -49.8501 TS 50 7 7
1879228N13341 1879 13 NA NA NOT_NAMED 1879-08-29 06:00:00 TS 30.6000 -49.8000 main 1805 1771 _____________O -1 30.6000 -49.8000 TS 50 7 5
1879228N13341 1879 13 NA NA NOT_NAMED 1879-08-29 09:00:00 TS 30.9200 -49.7777 main 1771 1727 _____________P -1 30.9200 -49.7777 TS 50 7 0
1879228N13341 1879 13 NA NA NOT_NAMED 1879-08-29 12:00:00 TS 31.3000 -49.8000 main 1727 1671 _____________O -1 31.3000 -49.8000 TS 50 9 354
1879228N13341 1879 13 NA NA NOT_NAMED 1879-08-29 15:00:00 TS 31.8275 -49.8922 main 1671 1603 _____________P -1 31.8275 -49.8922 TS 50 11 351
1879228N13341 1879 13 NA NA NOT_NAMED 1879-08-29 18:00:00 TS 32.4000 -50.0000 main 1603 1547 _____________O -1 32.4000 -50.0000 TS 50 11 353
1879228N13341 1879 13 NA NA NOT_NAMED 1879-08-29 21:00:00 TS 32.9000 -50.0577 main 1547 1492 _____________P -1 32.9000 -50.0577 TS 47 10 355
1879228N13341 1879 13 NA NA NOT_NAMED 1879-08-30 00:00:00 TS 33.4000 -50.1000 main 1492 1435 _____________O -1 33.4000 -50.1000 TS 45 11 356
1879228N13341 1879 13 NA NA NOT_NAMED 1879-08-30 03:00:00 TS 33.9500 -50.1574 main 1424 1369 _____________P -1 33.9500 -50.1574 TS 45 11 356
1879228N13341 1879 13 NA NA NOT_NAMED 1879-08-30 06:00:00 TS 34.5000 -50.2000 main 1369 1313 _____________O -1 34.5000 -50.2000 TS 45 11 355
1879228N13341 1879 13 NA NA NOT_NAMED 1879-08-30 09:00:00 TS 35.0673 -50.2597 main 1302 1259 _____________P -1 35.0673 -50.2597 TS 42 10 1
1879228N13341 1879 13 NA NA NOT_NAMED 1879-08-30 12:00:00 TS 35.5000 -50.2000 main 1259 1241 _____________O -1 35.5000 -50.2000 TS 40 7 26
1879228N13341 1879 13 NA NA NOT_NAMED 1879-08-30 15:00:00 TS 35.6677 -49.9025 main 1243 1243 _____________P -1 35.6677 -49.9025 TS 40 6 71
1879228N13341 1879 13 NA NA NOT_NAMED 1879-08-30 18:00:00 TS 35.7000 -49.5000 main 1250 1246 _____________O -1 35.7000 -49.5000 TS 40 6 82
1879228N13341 1879 13 NA NA NOT_NAMED 1879-08-30 21:00:00 TS 35.7575 -49.1424 main 1248 1248 _____________P -1 35.7575 -49.1424 TS 37 6 80
1879228N13341 1879 13 NA NA NOT_NAMED 1879-08-31 00:00:00 TS 35.8000 -48.8000 main 1255 1255 _____________O -1 35.8000 -48.8000 TS 35 5 80
1879228N13341 1879 13 NA NA NOT_NAMED 1879-08-31 03:00:00 TS 35.8498 -48.4999 main 1263 1252 _____________P -1 35.8498 -48.4999 TS 35 5 78
1879228N13341 1879 13 NA NA NOT_NAMED 1879-08-31 06:00:00 TS 35.9000 -48.2000 main 1260 1260 _____________O -1 35.9000 -48.2000 TS 35 5 86
1879228N13341 1879 13 NA NA NOT_NAMED 1879-08-31 09:00:00 TS 35.8817 -47.9157 main 1268 1267 _____________P -1 35.8817 -47.9157 TS 35 6 80
1879228N13341 1879 13 NA NA NOT_NAMED 1879-08-31 12:00:00 TS 36.0000 -47.5000 main 1270 1248 _____________O -1 36.0000 -47.5000 TS 35 10 59
1879228N13341 1879 13 NA NA NOT_NAMED 1879-08-31 15:00:00 TS 36.4117 -46.8316 main 1251 1221 _____________P -1 36.4117 -46.8316 TS 35 16 50
1879228N13341 1879 13 NA NA NOT_NAMED 1879-08-31 18:00:00 TS 37.0000 -46.0000 main 1221 _____________O -1 37.0000 -46.0000 TS 35 18 48

About IBTrACS Database

This database is a web-friendly format of International Best Track Archive for Climate Stewardship (IBTrACS), a global best track data archive curated by NOAA dating back to 1842.

Updated: 2021-10-08